Time;durP1;ratioP1;P1;durP2;ratioP2;P2;SDS_P1;SDS_P2;PMS_P1;PMS_P2;Temp;Humidity;BMP_temperature;BMP_pressure;BME280_temperature;BME280_humidity;BME280_pressure;Samples;Min_cycle;Max_cycle;Signal;HPM_P1;HPM_P2
2023/07/27 00:00:47;;;;;;;3.40;1.83;;;;;;;;;;5075485;28;20426;-70
2023/07/27 00:03:13;;;;;;;3.00;1.67;;;12.50;99.90;;;;;;5077414;28;20181;-70
2023/07/27 00:05:39;;;;;;;4.27;2.23;;;12.50;99.90;;;;;;5088601;28;20946;-70
2023/07/27 00:08:04;;;;;;;2.97;1.77;;;12.50;99.90;;;;;;5089062;28;20169;-71
2023/07/27 00:10:30;;;;;;;4.93;1.80;;;12.50;99.90;;;;;;5088909;28;20298;-71
2023/07/27 00:12:56;;;;;;;5.60;2.30;;;12.50;99.90;;;;;;5085279;28;20248;-71
2023/07/27 00:15:21;;;;;;;3.27;1.70;;;12.50;99.90;;;;;;5088662;28;20177;-71
2023/07/27 00:17:47;;;;;;;2.60;1.40;;;12.50;99.90;;;;;;5087387;28;20458;-71
2023/07/27 00:20:13;;;;;;;4.30;1.37;;;12.50;99.90;;;;;;5085844;28;20192;-70
2023/07/27 00:22:39;;;;;;;3.67;2.00;;;12.60;99.90;;;;;;5079777;28;20611;-70
2023/07/27 00:25:05;;;;;;;2.73;1.90;;;12.60;99.90;;;;;;5075859;28;20177;-71
2023/07/27 00:27:30;;;;;;;2.93;1.73;;;12.60;99.90;;;;;;5083711;28;20199;-71
2023/07/27 00:29:56;;;;;;;4.33;2.20;;;12.70;99.90;;;;;;5077869;28;20893;-71
2023/07/27 00:32:22;;;;;;;2.50;1.33;;;12.70;99.90;;;;;;5081584;28;20177;-70
2023/07/27 00:34:49;;;;;;;3.60;1.90;;;12.80;99.90;;;;;;5087253;28;20209;-70
2023/07/27 00:37:15;;;;;;;4.10;1.33;;;12.80;99.90;;;;;;5081788;28;20455;-70
2023/07/27 00:39:40;;;;;;;3.17;1.57;;;12.80;99.90;;;;;;5084464;28;20414;-70
2023/07/27 00:42:06;;;;;;;2.77;1.50;;;12.80;99.90;;;;;;5088342;28;20172;-70
2023/07/27 00:44:32;;;;;;;6.67;2.27;;;12.80;99.90;;;;;;5081342;28;20173;-70
2023/07/27 00:46:58;;;;;;;3.40;1.63;;;12.90;99.90;;;;;;5086760;28;20489;-70
2023/07/27 00:49:23;;;;;;;6.53;1.90;;;12.90;99.90;;;;;;5073672;28;20196;-70
2023/07/27 00:51:49;;;;;;;4.37;1.90;;;12.80;99.90;;;;;;5081703;28;20423;-72
2023/07/27 00:54:16;;;;;;;3.33;1.70;;;13.70;99.90;;;;;;5079311;28;20218;-71
2023/07/27 00:56:42;;;;;;;6.27;2.70;;;12.70;99.90;;;;;;5081283;28;20284;-72
2023/07/27 00:59:08;;;;;;;10.57;2.40;;;12.60;99.90;;;;;;5086529;28;20951;-71
2023/07/27 01:01:33;;;;;;;3.73;1.60;;;12.60;99.90;;;;;;5087630;28;20238;-72
2023/07/27 01:04:00;;;;;;;3.43;1.73;;;12.40;99.90;;;;;;5079285;28;20185;-72
2023/07/27 01:06:26;;;;;;;6.63;2.00;;;12.50;99.90;;;;;;5077599;28;20271;-71
2023/07/27 01:08:53;;;;;;;12.50;1.53;;;12.60;99.90;;;;;;5081544;28;20427;-69
2023/07/27 01:11:19;;;;;;;2.83;1.57;;;12.60;99.90;;;;;;5078015;28;20303;-69
2023/07/27 01:14:05;;;;;;;2.70;1.87;;;12.50;99.90;;;;;;5077726;28;20509;-70
2023/07/27 01:16:43;;;;;;;7.60;2.00;;;12.50;99.90;;;;;;5082354;28;20279;-70
2023/07/27 01:19:27;;;;;;;3.30;1.40;;;12.60;99.90;;;;;;5083242;28;20881;-70
2023/07/27 01:22:04;;;;;;;6.07;1.70;;;;;;;;;;5089715;28;20417;-70
2023/07/27 01:24:59;;;;;;;3.53;1.90;;;12.60;99.90;;;;;;5082847;28;20443;-71
2023/07/27 01:27:36;;;;;;;3.27;1.57;;;12.60;99.90;;;;;;5045125;28;20429;-69
2023/07/27 01:30:35;;;;;;;3.23;1.33;;;12.60;99.90;;;;;;5078359;28;20395;-70
2023/07/27 01:33:10;;;;;;;3.50;1.33;;;12.50;99.90;;;;;;5081759;28;20409;-70
2023/07/27 01:35:47;;;;;;;4.37;1.10;;;12.50;99.90;;;;;;5078256;28;20463;-70
2023/07/27 01:38:13;;;;;;;5.50;1.33;;;;;;;;;;5082430;28;21070;-70
2023/07/27 01:40:41;;;;;;;3.33;1.30;;;12.60;99.90;;;;;;5084002;28;20465;-70
2023/07/27 01:43:07;;;;;;;3.00;1.33;;;;;;;;;;5084232;28;20427;-70
2023/07/27 01:45:33;;;;;;;2.63;1.23;;;;;;;;;;5080382;28;20511;-70
2023/07/27 01:48:00;;;;;;;2.57;1.43;;;12.60;99.90;;;;;;5062402;28;20505;-69
2023/07/27 01:50:27;;;;;;;2.30;1.13;;;12.50;99.90;;;;;;5074951;28;20518;-71
2023/07/27 01:52:55;;;;;;;3.63;1.40;;;12.60;99.90;;;;;;5075785;28;20762;-71
2023/07/27 01:55:22;;;;;;;2.73;1.50;;;;;;;;;;5080178;28;20414;-70
2023/07/27 01:57:49;;;;;;;3.63;1.17;;;12.50;99.90;;;;;;5090474;28;20959;-70
2023/07/27 02:00:16;;;;;;;6.43;2.00;;;12.50;99.90;;;;;;5083502;28;20448;-70
2023/07/27 02:02:43;;;;;;;2.37;1.20;;;;;;;;;;5090404;28;20418;-70
2023/07/27 02:05:10;;;;;;;7.53;1.67;;;12.50;99.90;;;;;;5075878;28;20914;-70
2023/07/27 02:07:36;;;;;;;3.30;1.83;;;;;;;;;;5083697;28;20882;-70
2023/07/27 02:10:02;;;;;;;6.80;1.70;;;12.60;99.90;;;;;;5092545;28;20489;-70
2023/07/27 02:12:34;;;;;;;3.73;1.73;;;12.60;99.90;;;;;;5082802;28;20436;-70
2023/07/27 02:15:10;;;;;;;3.27;1.27;;;12.50;99.90;;;;;;5078770;28;20180;-70
2023/07/27 02:17:45;;;;;;;3.33;1.50;;;12.60;99.90;;;;;;5080731;28;20534;-69
2023/07/27 02:20:14;;;;;;;2.20;1.43;;;12.50;99.90;;;;;;5081696;28;20417;-69
2023/07/27 02:22:43;;;;;;;2.80;1.50;;;12.50;99.90;;;;;;5080968;28;20498;-70
2023/07/27 02:25:09;;;;;;;2.30;1.47;;;12.50;99.90;;;;;;5083351;28;20419;-70
2023/07/27 02:27:35;;;;;;;10.67;1.73;;;12.60;99.90;;;;;;5078600;28;20564;-70
2023/07/27 02:30:04;;;;;;;2.53;1.53;;;12.60;99.90;;;;;;5077703;28;20517;-70
2023/07/27 02:32:30;;;;;;;6.13;1.87;;;12.60;99.90;;;;;;5081668;28;20181;-70
2023/07/27 02:34:56;;;;;;;5.20;2.33;;;12.70;99.90;;;;;;5078711;28;20445;-70
2023/07/27 02:37:22;;;;;;;3.67;2.07;;;12.70;99.90;;;;;;5082599;28;20823;-69
2023/07/27 02:39:47;;;;;;;2.00;1.40;;;13.30;99.90;;;;;;5084757;28;20180;-71
2023/07/27 02:42:13;;;;;;;2.90;1.20;;;12.60;99.90;;;;;;5080691;28;20196;-70
2023/07/27 02:44:39;;;;;;;3.23;1.80;;;12.70;99.90;;;;;;5083545;28;20184;-71
2023/07/27 02:47:04;;;;;;;3.30;2.03;;;12.70;99.90;;;;;;5079603;28;20231;-69
2023/07/27 02:49:30;;;;;;;2.80;1.20;;;;;;;;;;5080653;28;20807;-71
2023/07/27 02:51:56;;;;;;;2.03;1.20;;;12.70;99.90;;;;;;5080287;28;20176;-70
2023/07/27 02:54:22;;;;;;;4.80;1.60;;;12.90;99.90;;;;;;5073555;28;20423;-71
2023/07/27 02:56:48;;;;;;;2.70;1.30;;;12.80;99.90;;;;;;5077247;28;20317;-70
2023/07/27 02:59:14;;;;;;;3.83;2.00;;;12.70;99.90;;;;;;5082552;28;20183;-69
2023/07/27 03:01:40;;;;;;;3.30;1.50;;;12.80;99.90;;;;;;5075673;28;20493;-70
2023/07/27 03:04:05;;;;;;;3.90;1.50;;;12.80;99.90;;;;;;5081874;28;20185;-70
2023/07/27 03:06:31;;;;;;;4.60;1.77;;;;;;;;;;5079236;28;20184;-70
2023/07/27 03:08:57;;;;;;;2.97;1.37;;;;;;;;;;5085673;28;20223;-70
2023/07/27 03:11:23;;;;;;;3.50;1.73;;;;;;;;;;5079849;28;20418;-69
2023/07/27 03:13:51;;;;;;;3.07;1.87;;;12.80;99.90;;;;;;5074499;28;20765;-70
2023/07/27 03:16:17;;;;;;;2.27;1.33;;;;;;;;;;5085723;28;20223;-70
2023/07/27 03:18:43;;;;;;;2.47;1.37;;;;;;;;;;5076915;28;20411;-70
2023/07/27 03:21:10;;;;;;;4.43;1.93;;;12.80;99.90;;;;;;5088570;28;20406;-69
2023/07/27 03:23:36;;;;;;;2.93;1.50;;;12.90;99.90;;;;;;5081746;28;20446;-70
2023/07/27 03:26:10;;;;;;;2.10;1.20;;;12.80;99.90;;;;;;5088495;28;20414;-70
2023/07/27 03:28:35;;;;;;;2.80;1.53;;;12.90;99.90;;;;;;5082763;28;20184;-70
2023/07/27 03:31:01;;;;;;;3.60;1.93;;;12.90;99.90;;;;;;5075595;28;20479;-70
2023/07/27 03:33:26;;;;;;;14.57;2.23;;;12.90;99.90;;;;;;5091299;28;20185;-70
2023/07/27 03:35:52;;;;;;;3.77;1.53;;;12.80;99.90;;;;;;5093022;28;20208;-71
2023/07/27 03:38:18;;;;;;;2.90;1.50;;;12.90;99.90;;;;;;5078798;28;20181;-70
2023/07/27 03:40:44;;;;;;;3.27;1.83;;;12.90;99.90;;;;;;5084241;28;20806;-72
2023/07/27 03:43:10;;;;;;;3.83;1.57;;;12.90;99.90;;;;;;5083360;28;20263;-72
2023/07/27 03:45:36;;;;;;;3.13;1.43;;;12.90;99.90;;;;;;5081395;28;20185;-71
2023/07/27 03:48:02;;;;;;;8.97;2.80;;;;;;;;;;5091238;28;20427;-73
2023/07/27 03:50:28;;;;;;;2.43;1.40;;;;;;;;;;5093620;28;20188;-73
2023/07/27 03:52:53;;;;;;;3.70;1.87;;;12.80;99.90;;;;;;5084759;28;20423;-72
2023/07/27 03:55:19;;;;;;;4.43;1.70;;;;;;;;;;5087962;28;20855;-72
2023/07/27 03:57:47;;;;;;;3.60;1.40;;;12.90;99.90;;;;;;5075783;28;20568;-72
2023/07/27 04:00:13;;;;;;;3.50;1.83;;;;;;;;;;5077697;28;20509;-70
2023/07/27 04:02:39;;;;;;;3.93;1.73;;;;;;;;;;5075931;28;20419;-70
2023/07/27 04:05:05;;;;;;;3.43;1.80;;;12.90;99.90;;;;;;5073099;28;20423;-71
2023/07/27 04:07:31;;;;;;;2.83;1.70;;;12.90;99.90;;;;;;5078375;28;20900;-69
2023/07/27 04:09:58;;;;;;;3.17;1.70;;;12.80;99.90;;;;;;5098181;28;20183;-70
2023/07/27 04:12:24;;;;;;;4.20;1.93;;;;;;;;;;5098532;28;20609;-70
2023/07/27 04:14:51;;;;;;;2.90;1.83;;;13.00;99.90;;;;;;5088927;28;20452;-70
2023/07/27 04:17:17;;;;;;;5.33;1.80;;;;;;;;;;5080064;28;20446;-70
2023/07/27 04:19:42;;;;;;;3.20;1.40;;;13.10;99.90;;;;;;5087541;28;20441;-70
2023/07/27 04:22:08;;;;;;;2.67;1.63;;;13.10;99.90;;;;;;5072717;28;20510;-70
2023/07/27 04:24:34;;;;;;;2.43;1.33;;;13.20;99.90;;;;;;5074981;28;20177;-71
2023/07/27 04:26:59;;;;;;;4.90;1.27;;;13.10;99.90;;;;;;5094835;28;20265;-70
2023/07/27 04:29:25;;;;;;;2.73;1.40;;;13.20;99.90;;;;;;5083089;28;20185;-70
2023/07/27 04:31:51;;;;;;;6.73;2.10;;;;;;;;;;5074488;28;20188;-71
2023/07/27 04:34:16;;;;;;;2.43;1.40;;;14.80;99.90;;;;;;5085294;28;20574;-70
2023/07/27 04:36:42;;;;;;;2.63;1.30;;;13.20;99.90;;;;;;5075989;28;20467;-70
2023/07/27 04:39:08;;;;;;;3.90;1.80;;;13.30;99.90;;;;;;5079939;28;20208;-70
2023/07/27 04:41:33;;;;;;;3.30;1.10;;;13.20;99.90;;;;;;5079832;28;20174;-71
2023/07/27 04:43:59;;;;;;;4.33;1.60;;;13.30;99.90;;;;;;5080798;28;20622;-70
2023/07/27 04:46:24;;;;;;;3.20;1.50;;;13.30;99.90;;;;;;5091676;28;20177;-70
2023/07/27 04:48:50;;;;;;;2.60;1.70;;;13.30;99.90;;;;;;5080029;28;20231;-70
2023/07/27 04:51:16;;;;;;;3.07;1.47;;;13.30;99.90;;;;;;5087344;28;20189;-70
2023/07/27 04:53:42;;;;;;;2.13;1.20;;;;;;;;;;5097412;28;20188;-70
2023/07/27 04:56:07;;;;;;;4.00;1.70;;;13.40;99.90;;;;;;5085377;28;20263;-70
2023/07/27 04:58:34;;;;;;;2.57;1.13;;;13.50;99.90;;;;;;5081793;28;20893;-70
2023/07/27 05:01:00;;;;;;;2.80;1.40;;;;;;;;;;5074155;28;20635;-70
2023/07/27 05:03:26;;;;;;;2.70;1.57;;;;;;;;;;5088734;28;20406;-69
2023/07/27 05:05:53;;;;;;;3.40;1.37;;;13.60;99.90;;;;;;5087305;28;20423;-72
2023/07/27 05:08:18;;;;;;;7.23;1.83;;;13.60;99.90;;;;;;5094225;28;20755;-70
2023/07/27 05:10:44;;;;;;;3.57;1.50;;;13.60;99.90;;;;;;5089147;28;20456;-69
2023/07/27 05:13:10;;;;;;;1.73;1.03;;;;;;;;;;5088481;28;20181;-70
2023/07/27 05:15:40;;;;;;;2.43;1.00;;;13.70;99.90;;;;;;5089666;28;20206;-69
2023/07/27 05:18:05;;;;;;;2.63;1.70;;;13.70;99.90;;;;;;5092280;28;20985;-69
2023/07/27 05:20:33;;;;;;;3.63;1.53;;;13.70;99.90;;;;;;5080927;28;20415;-70
2023/07/27 05:22:58;;;;;;;2.30;1.37;;;13.70;99.90;;;;;;5092681;28;20262;-70
2023/07/27 05:25:24;;;;;;;2.90;1.23;;;13.70;99.90;;;;;;5080435;28;20548;-69
2023/07/27 05:27:50;;;;;;;3.80;1.37;;;13.80;99.90;;;;;;5081348;28;20608;-69
2023/07/27 05:30:15;;;;;;;5.40;1.73;;;13.80;99.90;;;;;;5083931;28;20503;-70
2023/07/27 05:32:41;;;;;;;7.00;1.83;;;13.90;99.90;;;;;;5082345;28;20187;-69
2023/07/27 05:35:07;;;;;;;2.17;1.30;;;13.90;99.90;;;;;;5078027;28;20622;-69
2023/07/27 05:37:32;;;;;;;3.43;1.27;;;13.90;99.90;;;;;;5079543;28;20199;-69
2023/07/27 05:39:58;;;;;;;2.70;1.37;;;13.90;99.90;;;;;;5074079;28;20177;-69
2023/07/27 05:42:24;;;;;;;13.63;2.00;;;14.00;99.90;;;;;;5083093;28;20213;-70
2023/07/27 05:44:49;;;;;;;6.20;1.70;;;13.90;99.90;;;;;;5081306;28;20184;-69
2023/07/27 05:47:15;;;;;;;3.60;1.63;;;14.00;99.90;;;;;;5095252;28;20178;-69
2023/07/27 05:49:40;;;;;;;1.63;0.87;;;14.00;99.90;;;;;;5074216;28;20666;-69
2023/07/27 05:52:07;;;;;;;3.20;1.60;;;14.00;99.90;;;;;;5077630;28;20195;-69
2023/07/27 05:54:32;;;;;;;2.00;1.23;;;14.00;99.90;;;;;;5089027;28;20187;-70
2023/07/27 05:56:58;;;;;;;3.67;1.40;;;14.10;99.90;;;;;;5093087;28;20458;-69
2023/07/27 05:59:24;;;;;;;2.10;1.10;;;14.10;99.90;;;;;;5085115;28;20188;-69
2023/07/27 06:01:49;;;;;;;2.30;1.20;;;14.20;99.90;;;;;;5072998;28;20181;-69
2023/07/27 06:04:16;;;;;;;1.93;1.30;;;14.20;99.90;;;;;;5080585;28;20196;-70
2023/07/27 06:06:43;;;;;;;5.70;2.10;;;14.20;99.90;;;;;;5107157;28;20183;-69
2023/07/27 06:09:09;;;;;;;2.53;1.27;;;14.30;99.90;;;;;;5105146;28;20418;-72
2023/07/27 06:11:35;;;;;;;3.20;1.40;;;14.30;99.90;;;;;;5092833;28;20418;-72
2023/07/27 06:14:00;;;;;;;2.70;1.40;;;14.40;99.90;;;;;;5089196;28;20511;-72
2023/07/27 06:16:26;;;;;;;5.30;1.80;;;14.40;99.90;;;;;;5076892;28;20315;-70
2023/07/27 06:18:52;;;;;;;5.20;1.53;;;14.60;99.90;;;;;;5081309;28;20624;-70
2023/07/27 06:21:17;;;;;;;2.63;1.60;;;14.60;99.90;;;;;;5077770;28;20994;-69
2023/07/27 06:23:43;;;;;;;6.03;1.43;;;15.30;99.90;;;;;;5072553;28;20299;-69
2023/07/27 06:26:09;;;;;;;4.30;1.40;;;14.70;99.90;;;;;;5072577;28;20189;-69
2023/07/27 06:28:35;;;;;;;5.07;1.80;;;14.50;99.90;;;;;;5072798;28;20181;-70
2023/07/27 06:31:02;;;;;;;5.33;1.10;;;14.40;99.90;;;;;;5075073;28;20243;-70
2023/07/27 06:33:28;;;;;;;3.03;1.53;;;14.40;99.90;;;;;;5072555;28;20422;-69
2023/07/27 06:35:53;;;;;;;3.50;1.60;;;14.30;99.90;;;;;;5085877;28;20912;-69
2023/07/27 06:38:19;;;;;;;2.57;1.30;;;14.40;99.90;;;;;;5072723;28;20256;-69
2023/07/27 06:40:45;;;;;;;3.30;1.53;;;14.40;99.90;;;;;;5086218;28;20184;-69
2023/07/27 06:43:10;;;;;;;2.63;1.37;;;14.40;99.90;;;;;;5080661;28;20230;-69
2023/07/27 06:45:36;;;;;;;2.50;1.50;;;14.50;99.90;;;;;;5078895;28;20173;-69
2023/07/27 06:48:02;;;;;;;2.37;1.17;;;14.50;99.90;;;;;;5084735;28;20181;-69
2023/07/27 06:50:28;;;;;;;4.00;1.97;;;14.60;99.90;;;;;;5082291;28;20270;-69
2023/07/27 06:52:53;;;;;;;6.37;1.97;;;14.60;99.90;;;;;;5084888;28;20927;-69
2023/07/27 06:55:19;;;;;;;3.23;1.60;;;14.70;99.90;;;;;;5078291;28;20185;-69
2023/07/27 06:57:45;;;;;;;2.83;1.30;;;14.70;99.90;;;;;;5071385;28;20193;-69
2023/07/27 07:00:11;;;;;;;4.57;1.30;;;14.80;99.90;;;;;;5079730;28;20181;-69
2023/07/27 07:02:37;;;;;;;2.53;1.40;;;14.80;99.90;;;;;;5096406;28;20254;-69
2023/07/27 07:05:03;;;;;;;6.70;1.60;;;14.90;99.90;;;;;;5095191;28;21006;-69
2023/07/27 07:07:29;;;;;;;3.87;1.80;;;14.90;99.90;;;;;;5084863;28;20181;-69
2023/07/27 07:09:54;;;;;;;2.80;1.30;;;15.00;99.90;;;;;;5095348;28;20267;-69
2023/07/27 07:12:20;;;;;;;1.87;1.10;;;15.00;99.90;;;;;;5093557;28;20676;-70
2023/07/27 07:14:45;;;;;;;2.50;1.03;;;15.10;99.90;;;;;;5089875;28;20219;-70
2023/07/27 07:17:11;;;;;;;7.10;1.83;;;15.00;99.90;;;;;;5085261;28;20197;-69
2023/07/27 07:19:37;;;;;;;3.13;1.50;;;15.10;99.90;;;;;;5084210;28;20334;-70
2023/07/27 07:22:03;;;;;;;2.83;1.50;;;15.10;99.90;;;;;;5076411;28;20184;-69
2023/07/27 07:24:28;;;;;;;3.50;1.53;;;15.10;99.90;;;;;;5089675;28;20414;-70
2023/07/27 07:26:55;;;;;;;3.73;1.20;;;15.10;99.90;;;;;;5076389;28;20191;-70
2023/07/27 07:29:21;;;;;;;2.43;1.00;;;15.10;99.90;;;;;;5086951;28;20189;-69
2023/07/27 07:31:47;;;;;;;4.73;1.47;;;15.10;99.90;;;;;;5086421;28;20421;-70
2023/07/27 07:34:13;;;;;;;2.60;1.20;;;15.10;99.90;;;;;;5099900;28;20524;-69
2023/07/27 07:36:39;;;;;;;5.50;2.00;;;15.10;99.90;;;;;;5089517;28;20259;-70
2023/07/27 07:39:04;;;;;;;4.30;1.80;;;15.10;99.90;;;;;;5090543;28;20565;-70
2023/07/27 07:41:31;;;;;;;2.37;1.33;;;15.20;99.90;;;;;;5071521;28;20646;-71
2023/07/27 07:43:57;;;;;;;8.30;1.53;;;15.20;99.90;;;;;;5080386;28;20222;-70
2023/07/27 07:46:22;;;;;;;3.70;1.67;;;15.20;99.90;;;;;;5100615;28;20871;-70
2023/07/27 07:48:48;;;;;;;3.77;1.70;;;15.20;99.90;;;;;;5097303;28;20645;-70
2023/07/27 07:51:14;;;;;;;2.13;1.27;;;15.30;99.90;;;;;;5084842;28;20218;-71
2023/07/27 07:53:41;;;;;;;1.77;0.97;;;15.30;99.90;;;;;;5090959;28;20181;-71
2023/07/27 07:56:14;;;;;;;2.23;1.03;;;15.30;99.90;;;;;;5095670;28;20422;-71
2023/07/27 07:58:40;;;;;;;6.70;1.53;;;15.40;99.90;;;;;;5089979;28;20419;-71
2023/07/27 08:01:06;;;;;;;1.90;1.13;;;15.40;99.90;;;;;;5077090;28;20422;-71
2023/07/27 08:03:32;;;;;;;2.80;1.40;;;15.40;99.90;;;;;;5088896;28;20172;-71
2023/07/27 08:05:58;;;;;;;6.13;1.90;;;15.40;99.90;;;;;;5075270;28;20175;-72
2023/07/27 08:08:24;;;;;;;6.00;1.50;;;15.60;99.90;;;;;;5086349;28;20176;-71
2023/07/27 08:10:50;;;;;;;1.70;1.10;;;15.60;99.90;;;;;;5087678;28;20410;-70
2023/07/27 08:13:16;;;;;;;2.60;1.20;;;15.70;99.90;;;;;;5088850;28;20419;-71
2023/07/27 08:15:53;;;;;;;4.77;1.63;;;15.80;99.90;;;;;;5084403;28;20619;-70
2023/07/27 08:18:19;;;;;;;2.27;1.23;;;15.90;99.90;;;;;;5090132;28;20177;-71
2023/07/27 08:20:45;;;;;;;3.47;1.60;;;15.90;99.90;;;;;;5090203;28;20403;-70
2023/07/27 08:23:11;;;;;;;5.00;1.63;;;15.90;99.90;;;;;;5094765;28;20234;-70
2023/07/27 08:25:37;;;;;;;2.43;1.50;;;16.00;99.90;;;;;;5084116;28;20412;-71
2023/07/27 08:28:04;;;;;;;4.40;1.90;;;16.00;99.90;;;;;;5081206;28;20946;-70
2023/07/27 08:30:31;;;;;;;2.50;1.30;;;16.10;99.90;;;;;;5085396;28;20485;-70
2023/07/27 08:32:56;;;;;;;3.87;1.30;;;16.20;99.90;;;;;;5077143;28;20411;-70
2023/07/27 08:35:22;;;;;;;3.30;1.70;;;16.20;99.90;;;;;;5084777;28;20969;-70
2023/07/27 08:37:48;;;;;;;4.53;1.73;;;16.20;99.90;;;;;;5086945;28;20199;-71
2023/07/27 08:40:13;;;;;;;2.13;1.30;;;16.30;99.90;;;;;;5086303;28;20191;-70
2023/07/27 08:42:39;;;;;;;2.57;1.30;;;16.30;99.90;;;;;;5089141;28;20223;-71
2023/07/27 08:45:06;;;;;;;3.57;1.47;;;16.30;99.90;;;;;;5091753;28;20686;-71
2023/07/27 08:47:33;;;;;;;2.17;1.30;;;16.40;99.90;;;;;;5080714;28;20196;-71
2023/07/27 08:49:58;;;;;;;3.60;1.57;;;16.40;99.90;;;;;;5081810;28;20813;-70
2023/07/27 08:52:25;;;;;;;2.53;1.00;;;16.30;99.90;;;;;;5088377;28;20445;-71
2023/07/27 08:54:51;;;;;;;3.37;1.80;;;16.30;99.90;;;;;;5084493;28;20649;-71
2023/07/27 08:57:17;;;;;;;3.90;1.53;;;16.30;99.90;;;;;;5089442;28;20450;-71
2023/07/27 08:59:42;;;;;;;2.70;1.30;;;16.30;99.90;;;;;;5076584;28;20285;-71
2023/07/27 09:02:08;;;;;;;4.13;1.60;;;16.30;99.90;;;;;;5086402;28;20188;-71
2023/07/27 09:04:34;;;;;;;4.50;2.00;;;16.50;99.90;;;;;;5082969;28;20693;-71
2023/07/27 09:07:07;;;;;;;2.73;1.53;;;16.60;99.90;;;;;;5095451;28;20214;-71
2023/07/27 09:09:34;;;;;;;1.97;1.03;;;16.70;99.90;;;;;;5097525;28;20188;-70
2023/07/27 09:12:03;;;;;;;2.03;1.20;;;16.90;99.90;;;;;;5077329;28;20411;-71
2023/07/27 09:14:37;;;;;;;2.90;1.37;;;17.10;99.90;;;;;;5080700;28;20893;-70
2023/07/27 09:17:04;;;;;;;3.97;1.50;;;17.30;99.90;;;;;;5078542;28;20442;-71
2023/07/27 09:19:36;;;;;;;2.93;1.30;;;17.40;99.90;;;;;;5079839;28;20903;-71
2023/07/27 09:22:02;;;;;;;3.17;1.60;;;17.40;99.90;;;;;;5075829;28;20465;-71
2023/07/27 09:24:34;;;;;;;2.17;1.10;;;17.40;99.90;;;;;;5086265;28;20413;-71
2023/07/27 09:27:03;;;;;;;4.30;1.20;;;17.40;99.90;;;;;;5093359;28;20509;-71
2023/07/27 09:29:29;;;;;;;3.83;1.43;;;17.30;99.90;;;;;;5079776;28;20455;-71
2023/07/27 09:32:00;;;;;;;4.50;1.13;;;17.40;99.90;;;;;;5092837;28;20845;-71
2023/07/27 09:34:28;;;;;;;3.20;1.27;;;17.40;99.90;;;;;;5092494;28;20420;-71
2023/07/27 09:36:58;;;;;;;3.43;1.60;;;17.30;99.90;;;;;;5085497;28;20536;-71
2023/07/27 09:39:28;;;;;;;3.30;1.50;;;17.20;99.90;;;;;;5076317;28;20416;-71
2023/07/27 09:41:54;;;;;;;1.90;1.07;;;17.20;99.90;;;;;;5072637;28;20430;-71
2023/07/27 09:44:21;;;;;;;2.33;1.10;;;17.00;99.90;;;;;;5087629;28;20880;-71
2023/07/27 09:46:47;;;;;;;2.23;1.20;;;17.00;99.90;;;;;;5088960;28;20434;-70
2023/07/27 09:49:14;;;;;;;7.53;1.50;;;16.90;99.90;;;;;;5085357;28;20422;-71
2023/07/27 09:51:40;;;;;;;4.90;1.53;;;16.90;99.90;;;;;;5083504;28;20772;-71
2023/07/27 09:54:06;;;;;;;4.90;1.57;;;16.80;99.90;;;;;;5090157;28;20454;-71
2023/07/27 09:56:32;;;;;;;3.03;1.47;;;16.70;99.90;;;;;;5076631;28;21019;-71
2023/07/27 09:58:59;;;;;;;3.40;1.57;;;16.70;99.90;;;;;;5086243;28;20181;-71
2023/07/27 10:01:26;;;;;;;2.90;1.30;;;16.60;99.90;;;;;;5089076;28;20421;-72
2023/07/27 10:03:57;;;;;;;4.20;1.67;;;16.60;99.90;;;;;;5085135;28;20730;-71
2023/07/27 10:06:24;;;;;;;3.77;1.57;;;16.60;99.90;;;;;;5089179;28;20410;-71
2023/07/27 10:08:50;;;;;;;3.10;1.20;;;16.70;99.90;;;;;;5091968;28;20476;-70
2023/07/27 10:11:16;;;;;;;5.60;1.40;;;16.80;99.90;;;;;;5096387;28;20921;-71
2023/07/27 10:13:43;;;;;;;2.10;1.33;;;16.90;99.90;;;;;;5087632;28;20177;-70
2023/07/27 10:16:11;;;;;;;2.57;1.00;;;17.00;99.90;;;;;;5091664;28;20715;-70
2023/07/27 10:18:43;;;;;;;2.70;1.30;;;17.10;99.90;;;;;;5081693;28;20411;-72
2023/07/27 10:21:20;;;;;;;1.63;0.80;;;17.30;99.90;;;;;;5084866;28;20718;-71
2023/07/27 10:23:53;;;;;;;4.30;1.60;;;17.40;99.90;;;;;;5080459;28;20773;-70
2023/07/27 10:26:20;;;;;;;3.50;1.50;;;17.50;99.90;;;;;;5076327;28;20418;-71
2023/07/27 10:28:48;;;;;;;3.07;1.27;;;17.80;99.90;;;;;;5077739;28;20519;-71
2023/07/27 10:31:14;;;;;;;3.63;1.30;;;18.00;99.90;;;;;;5085784;28;20445;-72
2023/07/27 10:33:59;;;;;;;2.30;1.10;;;18.20;99.90;;;;;;5087701;28;20484;-71
2023/07/27 10:37:09;;;;;;;4.00;1.40;;;18.60;99.90;;;;;;5072584;28;20212;-71
2023/07/27 10:39:34;;;;;;;2.83;1.30;;;18.80;99.90;;;;;;4981438;28;20431;-71
2023/07/27 10:42:07;;;;;;;2.73;1.23;;;19.00;99.90;;;;;;4992028;28;20877;-71
2023/07/27 10:44:42;;;;;;;2.00;1.23;;;19.60;99.90;;;;;;5037557;28;20324;-73
2023/07/27 10:47:11;;;;;;;2.33;1.03;;;19.90;99.90;;;;;;5072676;28;20976;-71
2023/07/27 10:49:40;;;;;;;2.40;1.20;;;19.80;99.90;;;;;;5077726;28;20416;-71
2023/07/27 10:52:08;;;;;;;3.53;1.80;;;19.90;99.60;;;;;;5083045;28;20422;-72
2023/07/27 10:54:38;;;;;;;2.67;1.17;;;19.70;99.80;;;;;;5082442;28;20477;-71
2023/07/27 10:57:07;;;;;;;3.83;1.73;;;19.60;99.90;;;;;;5082080;28;20458;-71
2023/07/27 10:59:39;;;;;;;2.30;1.00;;;19.60;99.90;;;;;;5077327;28;20416;-71
2023/07/27 11:02:29;;;;;;;4.17;1.43;;;19.40;99.90;;;;;;5082817;28;20494;-71
2023/07/27 11:04:56;;;;;;;2.27;1.30;;;19.80;99.50;;;;;;5080456;28;20408;-70
2023/07/27 11:07:35;;;;;;;4.37;1.70;;;20.00;99.30;;;;;;5087711;28;20817;-70
2023/07/27 11:10:09;;;;;;;2.00;1.00;;;20.00;99.40;;;;;;5085499;28;20415;-71
2023/07/27 11:12:46;;;;;;;2.93;1.20;;;19.90;99.40;;;;;;5078945;28;20422;-71
2023/07/27 11:15:20;;;;;;;1.57;0.77;;;19.70;99.50;;;;;;5084363;28;20449;-71
2023/07/27 11:17:47;;;;;;;3.20;1.37;;;19.60;99.60;;;;;;5082016;28;20457;-71
2023/07/27 11:20:13;;;;;;;3.13;1.43;;;19.60;99.80;;;;;;5091235;28;20411;-70
2023/07/27 11:22:38;;;;;;;3.00;1.30;;;19.70;99.90;;;;;;5078792;28;20514;-70
2023/07/27 11:25:04;;;;;;;2.40;1.33;;;19.80;99.70;;;;;;5077892;28;20227;-70
2023/07/27 11:27:30;;;;;;;2.13;1.10;;;19.70;99.70;;;;;;5090736;28;20200;-69
2023/07/27 11:29:59;;;;;;;4.30;1.13;;;19.70;99.80;;;;;;5072812;28;20438;-70
2023/07/27 11:32:27;;;;;;;2.93;0.97;;;19.70;99.90;;;;;;5089666;28;20212;-70
2023/07/27 11:34:57;;;;;;;3.00;1.50;;;19.70;99.90;;;;;;5092687;28;20434;-70
2023/07/27 11:37:28;;;;;;;3.30;1.30;;;19.70;99.90;;;;;;5083202;28;20799;-70
2023/07/27 11:39:55;;;;;;;1.77;0.80;;;19.60;99.90;;;;;;5078235;28;20406;-69
2023/07/27 11:42:26;;;;;;;2.23;1.20;;;19.50;99.90;;;;;;5077149;28;20453;-70
2023/07/27 11:44:52;;;;;;;1.90;0.93;;;19.50;99.90;;;;;;5086905;28;20491;-70
2023/07/27 11:47:17;;;;;;;4.70;1.20;;;19.40;99.90;;;;;;5107644;28;20502;-70
2023/07/27 11:49:44;;;;;;;6.40;1.17;;;19.30;99.90;;;;;;5080060;28;20217;-70
2023/07/27 11:52:09;;;;;;;2.17;1.03;;;19.40;99.90;;;;;;5089551;28;20187;-70
2023/07/27 11:54:40;;;;;;;1.57;0.83;;;19.40;99.90;;;;;;5091815;28;20426;-69
2023/07/27 11:57:07;;;;;;;2.23;1.00;;;19.40;99.90;;;;;;5087114;28;20208;-70
2023/07/27 11:59:32;;;;;;;3.13;1.10;;;19.30;99.90;;;;;;5081637;28;20424;-70
2023/07/27 12:01:58;;;;;;;1.40;0.67;;;19.30;99.90;;;;;;5080325;28;20435;-70
2023/07/27 12:04:26;;;;;;;2.93;1.20;;;19.20;99.90;;;;;;5092815;28;20189;-70
2023/07/27 12:06:54;;;;;;;1.87;1.00;;;19.10;99.90;;;;;;5090355;28;20556;-70
2023/07/27 12:09:19;;;;;;;2.90;1.27;;;19.10;99.90;;;;;;5090382;28;20510;-70
2023/07/27 12:11:45;;;;;;;1.83;0.90;;;19.00;99.90;;;;;;5080466;28;20451;-70
2023/07/27 12:14:11;;;;;;;1.70;0.80;;;18.90;99.90;;;;;;5094009;28;20188;-71
2023/07/27 12:16:41;;;;;;;1.70;1.00;;;18.70;99.90;;;;;;5085760;28;20281;-70
2023/07/27 12:19:07;;;;;;;4.07;1.00;;;18.70;99.90;;;;;;5086078;28;20177;-70
2023/07/27 12:21:38;;;;;;;6.70;1.37;;;18.60;99.90;;;;;;5073846;28;20541;-70
2023/07/27 12:24:08;;;;;;;2.47;0.93;;;18.40;99.90;;;;;;5084988;28;20785;-71
2023/07/27 12:26:34;;;;;;;1.60;0.80;;;18.20;99.90;;;;;;5091927;28;20954;-70
2023/07/27 12:28:59;;;;;;;2.07;0.90;;;18.10;99.90;;;;;;5080672;28;20435;-70
2023/07/27 12:31:25;;;;;;;4.90;1.23;;;18.00;99.90;;;;;;5088522;28;20692;-70
2023/07/27 12:33:51;;;;;;;2.53;1.37;;;17.90;99.90;;;;;;5088815;28;20174;-70
2023/07/27 12:36:17;;;;;;;3.70;1.53;;;17.90;99.90;;;;;;5079024;28;20681;-70
2023/07/27 12:38:42;;;;;;;2.83;1.50;;;17.90;99.90;;;;;;5081469;28;20181;-71
2023/07/27 12:41:08;;;;;;;2.50;1.50;;;18.00;99.90;;;;;;5075360;28;20346;-71
2023/07/27 12:43:33;;;;;;;2.10;1.00;;;18.10;99.90;;;;;;5081001;28;20678;-71
2023/07/27 12:45:59;;;;;;;2.10;1.43;;;18.10;99.90;;;;;;5090738;28;20620;-71
2023/07/27 12:48:25;;;;;;;2.30;1.07;;;18.20;99.90;;;;;;5087388;28;20173;-69
2023/07/27 12:50:50;;;;;;;3.00;1.60;;;18.20;99.90;;;;;;5091764;28;20206;-71
2023/07/27 12:53:16;;;;;;;1.90;1.10;;;18.30;99.90;;;;;;5084814;28;20207;-71
2023/07/27 12:55:41;;;;;;;3.43;1.40;;;18.50;99.90;;;;;;5086238;28;20189;-71